Ness City, Kansas
Current Conditions -  °F | °C
As of 8:35 AM on Monday 20 Oct 2014 (Local Time) from KHYS Reporting Station
Clear Clear  
Wind Chill: 44°   Ceiling: Unl
Heat Index: 46°   Visibility: 5mi
Dew Point: 41°   Wind: 5mph
Humidity: 81%   Direction: 330°NNW
Pressure: 30.1"   Gusts: NA
Location:  38.45°N, 99.91°W
Report Text: KHYS 201335Z AUTO 33004KT 5SM CLR 08/05 A3010 RMK AO1
Loading
Personal Weather Stations






























Interactive Weather Map
Tropical Storm Tracking
New forecast layout! Learn more

10-Day Weather Forecast

Advertisements
Track Severe Weather on mobile